createdAt,value
2018-03-08T00:01:44.249Z,87.18
2018-03-08T00:04:10.640Z,87.33
2018-03-08T00:06:37.061Z,87.60
2018-03-08T00:09:03.561Z,87.91
2018-03-08T00:11:29.972Z,86.55
2018-03-08T00:13:56.631Z,88.31
2018-03-08T00:16:24.472Z,87.30
2018-03-08T00:18:50.851Z,87.24
2018-03-08T00:21:17.225Z,86.95
2018-03-08T00:23:43.613Z,88.89
2018-03-08T00:26:10.939Z,88.39
2018-03-08T00:28:37.282Z,87.40
2018-03-08T00:31:03.649Z,85.92
2018-03-08T00:33:29.993Z,86.02
2018-03-08T00:36:06.572Z,87.60
2018-03-08T00:38:32.923Z,85.94
2018-03-08T00:40:59.295Z,84.96
2018-03-08T00:43:25.654Z,84.18
2018-03-08T00:45:55.594Z,85.28
2018-03-08T00:48:22.000Z,85.00
2018-03-08T00:50:48.429Z,84.24
2018-03-08T00:53:14.819Z,85.46
2018-03-08T00:55:48.358Z,85.11
2018-03-08T00:58:14.685Z,85.57
2018-03-08T01:00:41.071Z,86.91
2018-03-08T01:03:07.504Z,86.78
2018-03-08T01:05:33.946Z,87.47
2018-03-08T01:08:00.254Z,87.28
2018-03-08T01:10:26.691Z,86.33
2018-03-08T01:12:52.987Z,88.85
2018-03-08T01:15:19.374Z,86.93
2018-03-08T01:17:45.715Z,87.51
2018-03-08T01:20:12.036Z,86.26
2018-03-08T01:22:38.411Z,87.17
2018-03-08T01:25:04.859Z,88.25
2018-03-08T01:27:31.181Z,88.78
2018-03-08T01:29:57.553Z,88.94
2018-03-08T01:32:24.188Z,88.10
2018-03-08T01:34:50.530Z,87.38
2018-03-08T01:37:16.877Z,88.66
2018-03-08T01:39:43.252Z,89.87
2018-03-08T01:42:09.568Z,88.90
2018-03-08T01:44:35.875Z,87.15
2018-03-08T01:47:02.370Z,88.00
2018-03-08T01:49:28.680Z,87.71
2018-03-08T01:52:07.243Z,87.61
2018-03-08T01:54:33.568Z,85.15
2018-03-08T01:56:59.950Z,85.72
2018-03-08T01:59:26.349Z,86.60
2018-03-08T02:01:52.764Z,88.12
2018-03-08T02:04:19.063Z,88.57
2018-03-08T02:06:48.757Z,88.05
2018-03-08T02:09:15.076Z,87.51
2018-03-08T02:11:41.420Z,88.57
2018-03-08T02:14:07.781Z,88.47
2018-03-08T02:16:34.153Z,88.88
2018-03-08T02:19:00.449Z,90.07
2018-03-08T02:21:26.827Z,89.72
2018-03-08T02:23:53.212Z,87.64
2018-03-08T02:26:19.559Z,87.86
2018-03-08T02:28:45.923Z,88.57
2018-03-08T02:31:12.295Z,89.42
2018-03-08T02:33:38.656Z,89.84
2018-03-08T02:36:05.022Z,89.86
2018-03-08T02:38:31.336Z,89.57
2018-03-08T02:40:57.624Z,87.84
2018-03-08T02:43:24.002Z,87.36
2018-03-08T02:45:50.434Z,87.22
2018-03-08T02:48:16.786Z,87.46
2018-03-08T02:50:43.185Z,88.50
2018-03-08T02:53:09.499Z,89.86
2018-03-08T02:55:35.956Z,89.83
2018-03-08T02:58:02.382Z,89.05
2018-03-08T03:00:28.712Z,89.99
2018-03-08T03:02:55.022Z,89.59
2018-03-08T03:05:21.454Z,89.44
2018-03-08T03:07:47.828Z,89.18
2018-03-08T03:10:14.142Z,88.52
2018-03-08T03:12:40.517Z,88.69
2018-03-08T03:15:06.902Z,88.57
2018-03-08T03:17:34.205Z,86.83
2018-03-08T03:20:00.598Z,88.61
2018-03-08T03:22:26.935Z,89.93
2018-03-08T03:24:53.259Z,89.10
2018-03-08T03:27:19.592Z,88.48
2018-03-08T03:29:46.018Z,88.78
2018-03-08T03:32:12.338Z,89.27
2018-03-08T03:34:38.662Z,89.02
2018-03-08T03:37:13.333Z,89.75
2018-03-08T03:39:39.671Z,90.55
2018-03-08T03:42:05.980Z,91.00
2018-03-08T03:44:32.351Z,89.66
2018-03-08T03:47:02.316Z,89.59
2018-03-08T03:49:28.617Z,87.71
2018-03-08T03:51:54.940Z,87.44
2018-03-08T03:54:21.372Z,89.19
2018-03-08T03:56:48.778Z,89.79
2018-03-08T03:59:15.102Z,89.09
2018-03-08T04:01:41.563Z,88.44
2018-03-08T04:04:07.847Z,89.05
2018-03-08T04:06:34.213Z,89.12
2018-03-08T04:09:00.625Z,90.70
2018-03-08T04:11:26.922Z,91.50
2018-03-08T04:13:53.272Z,91.28
2018-03-08T04:16:19.694Z,91.20
2018-03-08T04:18:45.981Z,91.41
2018-03-08T04:21:12.302Z,91.33
2018-03-08T04:23:38.771Z,91.94
2018-03-08T04:26:10.703Z,91.63
2018-03-08T04:28:37.029Z,91.47
2018-03-08T04:31:03.413Z,91.97
2018-03-08T04:33:29.707Z,92.62
2018-03-08T04:35:59.788Z,92.85
2018-03-08T04:38:26.247Z,92.92
2018-03-08T04:40:52.867Z,93.22
2018-03-08T04:43:19.220Z,93.58
2018-03-08T04:45:46.636Z,92.20
2018-03-08T04:48:12.957Z,89.67
2018-03-08T04:50:39.303Z,91.23
2018-03-08T04:53:05.716Z,92.93
2018-03-08T04:55:32.099Z,93.00
2018-03-08T04:57:58.484Z,93.55
2018-03-08T05:00:24.922Z,93.24
2018-03-08T05:02:51.709Z,92.58
2018-03-08T05:05:18.726Z,92.86
2018-03-08T05:07:45.490Z,92.65
2018-03-08T05:10:11.831Z,92.56
2018-03-08T05:12:38.201Z,92.56
2018-03-08T05:15:04.650Z,92.88
2018-03-08T05:17:31.045Z,92.47
2018-03-08T05:19:57.390Z,91.67
2018-03-08T05:22:24.025Z,92.33
2018-03-08T05:24:50.423Z,92.81
2018-03-08T05:27:16.854Z,91.56
2018-03-08T05:29:43.243Z,91.89
2018-03-08T05:32:09.619Z,91.37
2018-03-08T05:34:36.003Z,90.97
2018-03-08T05:37:02.466Z,90.93
2018-03-08T05:39:28.959Z,90.42
2018-03-08T05:41:55.580Z,91.75
2018-03-08T05:44:21.937Z,90.74
2018-03-08T05:46:48.328Z,90.30
2018-03-08T05:49:14.677Z,89.47
2018-03-08T05:51:41.135Z,90.80
2018-03-08T05:54:07.571Z,90.27
2018-03-08T05:56:36.073Z,90.25
2018-03-08T05:59:02.463Z,89.97
2018-03-08T06:01:28.837Z,90.04
2018-03-08T06:03:55.164Z,89.58
2018-03-08T06:06:21.606Z,88.38
2018-03-08T06:08:47.929Z,88.17
2018-03-08T06:11:14.296Z,89.04
2018-03-08T06:13:40.729Z,89.78
2018-03-08T06:16:07.231Z,89.25
2018-03-08T06:18:33.602Z,89.00
2018-03-08T06:21:00.031Z,89.64
2018-03-08T06:23:26.353Z,89.20
2018-03-08T06:25:52.835Z,89.13
2018-03-08T06:28:19.239Z,89.37
2018-03-08T06:30:45.602Z,89.19
2018-03-08T06:33:11.976Z,88.96
2018-03-08T06:35:38.388Z,88.88
2018-03-08T06:38:05.044Z,88.72
2018-03-08T06:40:31.621Z,88.34
2018-03-08T06:42:58.040Z,86.57
2018-03-08T06:45:25.480Z,87.62
2018-03-08T06:47:51.898Z,86.53
2018-03-08T06:50:18.281Z,85.55
2018-03-08T06:52:44.806Z,87.09
2018-03-08T06:55:12.252Z,87.52
2018-03-08T06:57:38.615Z,87.05
2018-03-08T07:00:04.982Z,87.64
2018-03-08T07:02:31.338Z,88.49
2018-03-08T07:04:57.747Z,88.67
2018-03-08T07:07:24.134Z,87.71
2018-03-08T07:09:51.361Z,87.51
2018-03-08T07:12:17.738Z,88.81
2018-03-08T07:14:44.126Z,87.90
2018-03-08T07:17:10.481Z,88.40
2018-03-08T07:19:36.952Z,89.14
2018-03-08T07:22:03.274Z,88.28
2018-03-08T07:24:29.614Z,90.94
2018-03-08T07:26:56.070Z,91.00
2018-03-08T07:29:22.394Z,88.67
2018-03-08T07:31:48.875Z,89.13
2018-03-08T07:34:15.244Z,89.44
2018-03-08T07:36:41.701Z,90.62
2018-03-08T07:39:08.020Z,91.34
2018-03-08T07:41:34.410Z,89.31
2018-03-08T07:44:00.780Z,89.84
2018-03-08T07:46:27.247Z,87.49
2018-03-08T07:48:53.669Z,86.51
2018-03-08T07:51:19.963Z,89.03
2018-03-08T07:53:46.482Z,89.85
2018-03-08T07:56:12.931Z,88.03
2018-03-08T07:58:39.277Z,89.93
2018-03-08T08:01:05.605Z,88.69
2018-03-08T08:03:32.353Z,90.06
2018-03-08T08:06:10.901Z,89.42
2018-03-08T08:08:49.624Z,88.24
2018-03-08T08:11:15.958Z,87.03
2018-03-08T08:13:42.286Z,87.21
2018-03-08T08:16:08.836Z,86.98
2018-03-08T08:18:35.206Z,89.02
2018-03-08T08:21:01.611Z,89.78
2018-03-08T08:23:28.357Z,91.63
2018-03-08T08:25:54.779Z,90.22
2018-03-08T08:28:21.124Z,90.12
2018-03-08T08:30:47.480Z,90.90
2018-03-08T08:33:13.825Z,90.99
2018-03-08T08:35:40.246Z,92.25
2018-03-08T08:38:06.701Z,92.17
2018-03-08T08:40:33.058Z,92.62
2018-03-08T08:42:59.514Z,91.86
2018-03-08T08:45:26.026Z,92.01
2018-03-08T08:47:52.459Z,92.16
2018-03-08T08:50:18.858Z,91.76
2018-03-08T08:52:45.356Z,91.85
2018-03-08T08:55:12.628Z,92.92
2018-03-08T08:57:39.105Z,90.51
2018-03-08T09:00:05.630Z,91.23
2018-03-08T09:02:32.765Z,90.79
2018-03-08T09:04:59.286Z,92.53
2018-03-08T09:07:25.801Z,92.44
2018-03-08T09:09:52.323Z,93.41
2018-03-08T09:12:18.718Z,94.86
2018-03-08T09:14:45.095Z,92.02
2018-03-08T09:17:11.847Z,91.16
2018-03-08T09:45:00.673Z,92.46
2018-03-08T09:47:27.354Z,91.96
2018-03-08T09:49:54.029Z,89.23
2018-03-08T09:52:20.562Z,90.20
2018-03-08T09:54:46.936Z,91.74
2018-03-08T09:57:13.336Z,92.69
2018-03-08T09:59:39.750Z,92.48
2018-03-08T10:02:06.614Z,91.43
2018-03-08T10:04:32.951Z,92.34
2018-03-08T10:06:59.434Z,91.05
2018-03-08T10:09:25.920Z,91.50
2018-03-08T10:11:52.343Z,91.79
2018-03-08T10:14:18.756Z,91.26
2018-03-08T10:16:45.310Z,90.53
2018-03-08T10:19:12.307Z,89.56
2018-03-08T10:21:45.631Z,90.21
2018-03-08T10:24:05.169Z,88.58
2018-03-08T10:26:31.848Z,90.07
2018-03-08T10:28:58.254Z,88.28
2018-03-08T10:31:24.601Z,90.33
2018-03-08T10:33:50.956Z,90.03
2018-03-08T10:36:17.582Z,90.08
2018-03-08T10:38:43.984Z,89.85
2018-03-08T10:41:10.392Z,89.81
2018-03-08T10:43:36.758Z,91.10
2018-03-08T10:46:03.172Z,91.14
2018-03-08T10:48:29.570Z,92.64
2018-03-08T10:50:56.046Z,90.50
2018-03-08T10:53:22.457Z,91.37
2018-03-08T10:55:48.898Z,91.19
2018-03-08T10:58:15.340Z,91.20
2018-03-08T11:00:45.691Z,89.57
2018-03-08T11:03:12.149Z,89.54
2018-03-08T11:05:44.711Z,89.40
2018-03-08T11:08:11.187Z,90.84
2018-03-08T11:10:37.661Z,91.26
2018-03-08T11:13:04.083Z,90.84
2018-03-08T11:15:30.500Z,85.17
2018-03-08T11:17:56.880Z,88.83
2018-03-08T11:20:23.292Z,86.75
2018-03-08T11:22:49.723Z,84.85
2018-03-08T11:25:16.111Z,85.80
2018-03-08T11:27:42.673Z,86.09
2018-03-08T11:30:09.073Z,85.88
2018-03-08T11:32:36.269Z,85.31
2018-03-08T11:35:02.791Z,85.71
2018-03-08T11:37:29.249Z,88.67
2018-03-08T11:39:55.576Z,88.96
2018-03-08T11:42:23.019Z,88.07
2018-03-08T11:44:49.608Z,89.52
2018-03-08T11:47:16.068Z,82.98
2018-03-08T11:49:42.557Z,86.23
2018-03-08T11:52:09.018Z,85.52
2018-03-08T11:54:35.420Z,84.83
2018-03-08T11:57:01.849Z,87.38
2018-03-08T11:59:28.393Z,88.49
2018-03-08T12:01:55.061Z,89.08
2018-03-08T12:04:21.434Z,87.06
2018-03-08T12:06:47.907Z,86.58
2018-03-08T12:09:14.297Z,88.92
2018-03-08T12:11:40.671Z,89.33
2018-03-08T12:14:07.898Z,87.58
2018-03-08T12:16:34.322Z,89.12
2018-03-08T12:19:00.926Z,84.75
2018-03-08T12:21:27.393Z,87.32
2018-03-08T12:23:53.726Z,88.56
2018-03-08T12:26:20.214Z,84.74
2018-03-08T12:28:46.614Z,86.13
2018-03-08T12:31:13.980Z,88.09
2018-03-08T12:33:40.446Z,88.25
2018-03-08T12:36:06.901Z,88.01
2018-03-08T12:38:33.298Z,88.29
2018-03-08T12:40:59.727Z,86.05
2018-03-08T12:43:26.143Z,85.22
2018-03-08T12:45:52.725Z,84.44
2018-03-08T12:48:19.248Z,82.46
2018-03-08T12:50:45.795Z,83.91
2018-03-08T12:53:12.205Z,83.27
2018-03-08T12:55:38.737Z,84.80
2018-03-08T12:58:05.107Z,84.00
2018-03-08T13:00:31.516Z,83.94
2018-03-08T13:02:58.158Z,82.93
2018-03-08T13:05:24.695Z,82.80
2018-03-08T13:07:51.203Z,81.66
2018-03-08T13:10:17.798Z,80.41
2018-03-08T13:12:44.227Z,82.88
2018-03-08T13:15:11.649Z,81.45
2018-03-08T13:17:38.241Z,80.29
2018-03-08T13:20:04.806Z,79.58
2018-03-08T13:22:32.299Z,82.57
2018-03-08T13:24:58.813Z,79.33
2018-03-08T13:27:28.837Z,81.77
2018-03-08T13:29:55.590Z,82.23
2018-03-08T13:32:23.000Z,84.34
2018-03-08T13:34:49.444Z,81.66
2018-03-08T13:37:15.996Z,81.63
2018-03-08T13:39:43.908Z,83.17
2018-03-08T13:42:10.492Z,80.87
2018-03-08T13:44:37.501Z,76.29
2018-03-08T13:47:06.063Z,80.49
2018-03-08T13:49:37.435Z,75.69
2018-03-08T13:52:03.900Z,78.38
2018-03-08T13:54:30.349Z,80.59
2018-03-08T13:56:56.729Z,78.69
2018-03-08T13:59:23.133Z,83.28
2018-03-08T14:01:49.811Z,80.76
2018-03-08T14:04:16.156Z,82.12
2018-03-08T14:06:42.618Z,82.42
2018-03-08T14:09:09.099Z,83.85
2018-03-08T14:11:35.518Z,81.50
2018-03-08T14:14:02.122Z,85.78
2018-03-08T14:16:29.613Z,83.43
2018-03-08T14:18:55.959Z,84.43
2018-03-08T14:21:22.434Z,81.89
2018-03-08T14:23:48.826Z,82.48
2018-03-08T14:26:15.319Z,81.75
2018-03-08T14:28:42.188Z,81.21
2018-03-08T14:31:08.543Z,83.84
2018-03-08T14:33:35.385Z,79.72
2018-03-08T14:36:01.949Z,78.23
2018-03-08T14:38:28.616Z,82.15
2018-03-08T14:40:55.607Z,77.11
2018-03-08T14:43:22.187Z,76.25
2018-03-08T14:45:48.665Z,77.89
2018-03-08T14:48:15.070Z,80.18
2018-03-08T14:50:41.653Z,76.06
2018-03-08T14:53:08.204Z,76.10
2018-03-08T14:55:39.231Z,73.75
2018-03-08T14:58:05.673Z,72.78
2018-03-08T15:00:32.070Z,74.20
2018-03-08T15:02:58.485Z,75.78
2018-03-08T15:05:25.074Z,74.69
2018-03-08T15:07:51.414Z,76.58
2018-03-08T15:10:17.755Z,73.71
2018-03-08T15:12:44.202Z,76.13
2018-03-08T15:15:10.559Z,74.43
2018-03-08T15:17:40.120Z,74.73
2018-03-08T15:20:06.492Z,75.02
2018-03-08T15:22:32.865Z,74.07
2018-03-08T15:24:59.265Z,76.84
2018-03-08T15:27:26.779Z,76.51
2018-03-08T15:29:53.117Z,78.56
2018-03-08T15:32:19.462Z,77.70
2018-03-08T15:34:46.020Z,79.51
2018-03-08T15:37:16.197Z,80.09
2018-03-08T15:39:42.778Z,80.72
2018-03-08T15:42:09.157Z,78.18
2018-03-08T15:44:35.639Z,79.76
2018-03-08T15:47:02.173Z,80.60
2018-03-08T15:49:28.582Z,77.27
2018-03-08T15:51:55.830Z,80.92
2018-03-08T15:54:22.229Z,79.36
2018-03-08T15:56:48.767Z,82.12
2018-03-08T15:59:15.144Z,82.24
2018-03-08T16:01:41.610Z,80.61
2018-03-08T16:04:08.033Z,81.20
2018-03-08T16:06:46.713Z,79.77
2018-03-08T16:09:25.383Z,80.93
2018-03-08T16:11:51.864Z,80.41
2018-03-08T16:14:18.242Z,78.75
2018-03-08T16:16:44.732Z,80.67
2018-03-08T16:19:11.177Z,80.22
2018-03-08T16:21:38.435Z,79.50
2018-03-08T16:24:05.015Z,79.04
2018-03-08T16:26:31.522Z,80.62
2018-03-08T16:28:57.894Z,82.41
2018-03-08T16:31:24.338Z,81.45
2018-03-08T16:33:50.752Z,81.67
2018-03-08T16:36:17.311Z,80.77
2018-03-08T16:38:43.955Z,81.73
2018-03-08T16:41:10.482Z,81.13
2018-03-08T16:43:37.122Z,81.90
2018-03-08T16:46:07.007Z,83.16
2018-03-08T16:48:33.494Z,82.49
2018-03-08T16:50:59.971Z,83.15
2018-03-08T16:53:26.622Z,84.58
2018-03-08T16:55:53.145Z,82.95
2018-03-08T16:58:19.727Z,83.44
2018-03-08T17:00:46.442Z,83.61
2018-03-08T17:03:12.964Z,83.46
2018-03-08T17:05:40.603Z,84.57
2018-03-08T17:08:07.500Z,84.74
2018-03-08T17:10:34.002Z,82.60
2018-03-08T17:13:00.443Z,83.59
2018-03-08T17:15:30.687Z,84.89
2018-03-08T17:17:57.281Z,84.60
2018-03-08T17:20:25.338Z,86.23
2018-03-08T17:22:51.781Z,86.60
2018-03-08T17:25:18.122Z,87.08
2018-03-08T17:27:44.698Z,87.64
2018-03-08T17:30:11.254Z,86.94
2018-03-08T17:32:37.666Z,86.92
2018-03-08T17:35:04.121Z,87.17
2018-03-08T17:37:30.658Z,87.68
2018-03-08T17:39:57.038Z,88.14
2018-03-08T17:42:23.898Z,88.97
2018-03-08T17:47:46.961Z,88.71
2018-03-08T17:50:13.443Z,88.16
2018-03-08T17:52:39.891Z,88.11
2018-03-08T17:55:06.359Z,88.62
2018-03-08T17:57:32.914Z,87.24
2018-03-08T17:59:59.373Z,87.53
2018-03-08T18:02:25.929Z,87.34
2018-03-08T18:04:52.298Z,87.96
2018-03-08T18:07:18.849Z,88.30
2018-03-08T18:09:45.339Z,86.14
2018-03-08T18:12:11.847Z,88.40
2018-03-08T18:14:39.296Z,88.18
2018-03-08T18:17:08.204Z,87.14
2018-03-08T18:19:34.623Z,85.00
2018-03-08T18:22:01.128Z,85.86
2018-03-08T18:24:27.618Z,86.81
2018-03-08T18:27:02.346Z,86.08
2018-03-08T18:29:29.541Z,86.57
2018-03-08T18:31:56.480Z,83.93
2018-03-08T18:34:22.993Z,81.74
2018-03-08T18:36:49.673Z,83.15
2018-03-08T18:39:16.068Z,82.33
2018-03-08T18:41:42.664Z,82.07
2018-03-08T18:44:09.431Z,80.58
2018-03-08T18:46:35.957Z,81.51
2018-03-08T18:49:02.447Z,82.67
2018-03-08T18:51:28.909Z,82.51
2018-03-08T18:53:55.585Z,85.15
2018-03-08T18:56:24.164Z,85.27
2018-03-08T18:58:50.698Z,86.13
2018-03-08T19:01:17.181Z,85.85
2018-03-08T19:03:43.587Z,86.23
2018-03-08T19:06:10.988Z,86.66
2018-03-08T19:08:37.550Z,88.49
2018-03-08T19:11:04.008Z,90.03
2018-03-08T19:13:31.012Z,89.81
2018-03-08T19:15:57.721Z,89.15
2018-03-08T19:18:24.458Z,90.57
2018-03-08T19:20:51.120Z,90.42
2018-03-08T19:23:18.219Z,91.40
2018-03-08T19:25:46.760Z,91.91
2018-03-08T19:28:13.621Z,91.86
2018-03-08T19:30:40.422Z,92.57
2018-03-08T19:33:07.042Z,92.40
2018-03-08T19:35:34.054Z,92.83
2018-03-08T19:38:01.357Z,93.38
2018-03-08T19:40:28.480Z,92.06
2018-03-08T19:42:55.499Z,93.64
2018-03-08T19:45:22.493Z,93.27
2018-03-08T19:47:49.493Z,93.09
2018-03-08T19:50:16.205Z,93.57
2018-03-08T19:52:43.777Z,94.20
2018-03-08T19:55:10.360Z,93.36
2018-03-08T19:57:37.975Z,92.67
2018-03-08T20:00:05.330Z,91.94
2018-03-08T20:02:31.898Z,92.02
2018-03-08T20:04:58.763Z,90.61
2018-03-08T20:07:25.379Z,90.87
2018-03-08T20:09:52.491Z,90.88
2018-03-08T20:12:19.079Z,92.61
2018-03-08T20:14:45.543Z,93.16
2018-03-08T20:17:12.209Z,92.81
2018-03-08T20:19:38.784Z,92.83
2018-03-08T20:22:05.291Z,93.47
2018-03-08T20:24:31.704Z,94.08
2018-03-08T20:26:58.258Z,93.01
2018-03-08T20:29:24.648Z,93.06
2018-03-08T20:31:51.093Z,92.68
2018-03-08T20:34:17.497Z,92.73
2018-03-08T20:36:44.017Z,93.37
2018-03-08T20:39:10.465Z,94.13
2018-03-08T20:41:37.030Z,94.81
2018-03-08T20:44:03.442Z,93.80
2018-03-08T20:46:30.874Z,94.09
2018-03-08T20:48:57.487Z,95.59
2018-03-08T20:51:23.938Z,95.04
2018-03-08T20:53:50.370Z,94.74
2018-03-08T20:56:17.732Z,95.27
2018-03-08T20:58:44.453Z,95.30
2018-03-08T21:01:11.198Z,94.74
2018-03-08T21:03:38.039Z,93.95
2018-03-08T21:06:05.704Z,95.03
2018-03-08T21:08:33.152Z,95.54
2018-03-08T21:10:59.738Z,96.38
2018-03-08T21:16:23.077Z,95.65
2018-03-08T21:18:49.507Z,95.91
2018-03-08T21:21:15.968Z,95.65
2018-03-08T21:26:39.756Z,95.93
2018-03-08T21:32:02.812Z,95.97
2018-03-08T21:34:29.284Z,95.55
2018-03-08T21:36:55.680Z,94.94
2018-03-08T21:39:22.155Z,95.74
2018-03-08T21:41:48.531Z,96.09
2018-03-08T21:44:14.897Z,96.31
2018-03-08T21:46:41.417Z,96.39
2018-03-08T21:49:07.936Z,96.10
2018-03-08T21:51:34.437Z,95.81
2018-03-08T21:54:00.855Z,96.40
2018-03-08T21:56:27.253Z,96.64
2018-03-08T21:58:53.629Z,96.43
2018-03-08T22:01:20.077Z,97.14
2018-03-08T22:03:46.464Z,97.26
2018-03-08T22:06:12.953Z,97.34
2018-03-08T22:08:39.390Z,97.59
2018-03-08T22:11:05.709Z,97.11
2018-03-08T22:13:32.089Z,97.29
2018-03-08T22:15:58.621Z,97.61
2018-03-08T22:18:24.968Z,97.52
2018-03-08T22:20:51.396Z,97.27
2018-03-08T22:23:17.809Z,97.19
2018-03-08T22:25:44.172Z,96.88
2018-03-08T22:28:10.548Z,97.33
2018-03-08T22:30:37.705Z,97.24
2018-03-08T22:33:04.162Z,97.20
2018-03-08T22:35:30.539Z,97.34
2018-03-08T22:37:56.964Z,97.14
2018-03-08T22:40:23.340Z,97.85
2018-03-08T22:42:49.710Z,97.87
2018-03-08T22:45:16.193Z,97.55
2018-03-08T22:47:42.650Z,97.52
2018-03-08T22:50:09.108Z,97.44
2018-03-08T22:52:35.592Z,97.70
2018-03-08T22:55:01.959Z,97.78
2018-03-08T22:57:28.384Z,97.83
2018-03-08T22:59:54.768Z,97.31
2018-03-08T23:02:27.167Z,97.76
2018-03-08T23:04:53.533Z,97.70
2018-03-08T23:07:19.955Z,97.94
2018-03-08T23:09:46.295Z,97.91
2018-03-08T23:12:12.676Z,97.26
2018-03-08T23:14:39.137Z,98.27
2018-03-08T23:17:05.548Z,97.34
2018-03-08T23:19:31.933Z,97.85
2018-03-08T23:21:58.300Z,98.06
2018-03-08T23:24:24.710Z,98.13
2018-03-08T23:26:51.086Z,98.67
2018-03-08T23:29:17.478Z,97.71
2018-03-08T23:31:43.888Z,97.85
2018-03-08T23:34:10.273Z,97.81
2018-03-08T23:36:36.730Z,98.29
2018-03-08T23:39:03.700Z,98.79
2018-03-08T23:41:30.108Z,98.74
2018-03-08T23:43:56.516Z,98.55
2018-03-08T23:46:23.021Z,98.88
2018-03-08T23:48:49.404Z,98.61
2018-03-08T23:51:15.900Z,99.11
2018-03-08T23:53:42.303Z,98.86
2018-03-08T23:56:08.690Z,98.41
2018-03-08T23:58:35.041Z,98.39
